Time;durP1;ratioP1;P1;durP2;ratioP2;P2;SDS_P1;SDS_P2;PMS_P1;PMS_P2;Temp;Humidity;BMP_temperature;BMP_pressure;BME280_temperature;BME280_humidity;BME280_pressure;Samples;Min_cycle;Max_cycle;Signal;HPM_P1;HPM_P2
2021/06/11 00:01:56;;;;;;;21.58;19.38;;;17.00;99.90;;;;;;5008559;28;20494;-54
2021/06/11 00:04:22;;;;;;;20.27;18.25;;;17.00;99.90;;;;;;5023465;28;20045;-48
2021/06/11 00:06:48;;;;;;;21.58;19.38;;;17.00;99.90;;;;;;5017565;28;20045;-50
2021/06/11 00:09:14;;;;;;;22.15;19.80;;;17.00;99.90;;;;;;5015919;28;20046;-46
2021/06/11 00:11:41;;;;;;;21.13;18.88;;;17.00;99.90;;;;;;5017989;28;20049;-47
2021/06/11 00:14:11;;;;;;;22.33;20.08;;;17.00;99.90;;;;;;5011102;28;20064;-51
2021/06/11 00:16:37;;;;;;;23.30;20.55;;;17.00;99.90;;;;;;5006464;28;20491;-48
2021/06/11 00:19:03;;;;;;;23.13;20.80;;;17.00;99.90;;;;;;5005590;28;20532;-51
2021/06/11 00:21:30;;;;;;;23.85;21.33;;;16.90;99.90;;;;;;5006211;28;20045;-49
2021/06/11 00:23:56;;;;;;;24.90;22.23;;;16.90;99.90;;;;;;5007453;28;20053;-46
2021/06/11 00:26:22;;;;;;;24.30;21.77;;;16.80;99.90;;;;;;5013349;28;20124;-48
2021/06/11 00:28:48;;;;;;;22.92;19.85;;;16.80;99.90;;;;;;5025021;28;20045;-47
2021/06/11 00:31:14;;;;;;;23.75;21.33;;;16.80;99.90;;;;;;5009972;28;20049;-49
2021/06/11 00:33:41;;;;;;;24.15;21.52;;;16.80;99.90;;;;;;5010299;28;20404;-51
2021/06/11 00:36:07;;;;;;;26.73;21.75;;;16.80;99.90;;;;;;5029276;28;20076;-49
2021/06/11 00:38:34;;;;;;;23.42;21.10;;;16.80;99.90;;;;;;5028370;28;20076;-49
2021/06/11 00:41:00;;;;;;;22.77;20.40;;;16.70;99.90;;;;;;5029146;28;20115;-50
2021/06/11 00:43:26;;;;;;;21.63;19.33;;;16.80;99.90;;;;;;5028648;28;20467;-49
2021/06/11 00:45:53;;;;;;;23.27;21.00;;;16.80;99.90;;;;;;5027935;28;20085;-51
2021/06/11 00:48:19;;;;;;;23.52;21.23;;;16.70;99.90;;;;;;5011740;28;20045;-47
2021/06/11 00:50:45;;;;;;;22.90;20.45;;;16.60;99.90;;;;;;5015702;28;20437;-53
2021/06/11 00:53:11;;;;;;;22.85;19.60;;;16.60;99.90;;;;;;5013164;28;20056;-49
2021/06/11 00:55:44;;;;;;;23.60;21.10;;;16.60;99.90;;;;;;5023781;28;20041;-50
2021/06/11 00:58:16;;;;;;;23.83;21.30;;;16.50;99.90;;;;;;5010012;28;20045;-48
2021/06/11 01:00:43;;;;;;;23.70;21.25;;;16.50;99.90;;;;;;5009394;28;20739;-45
2021/06/11 01:03:11;;;;;;;23.13;20.70;;;16.50;99.90;;;;;;5009650;28;20045;-49
2021/06/11 01:05:40;;;;;;;24.50;21.88;;;16.40;99.90;;;;;;5011254;28;20192;-49
2021/06/11 01:08:06;;;;;;;23.95;21.50;;;16.40;99.90;;;;;;5008998;28;20104;-48
2021/06/11 01:10:34;;;;;;;23.45;21.25;;;16.40;99.90;;;;;;5016654;28;20050;-50
2021/06/11 01:13:01;;;;;;;23.80;21.40;;;16.40;99.90;;;;;;5012557;28;20073;-51
2021/06/11 01:15:27;;;;;;;23.95;21.55;;;16.40;99.90;;;;;;5021350;28;20045;-47
2021/06/11 01:17:54;;;;;;;24.95;22.40;;;16.40;99.90;;;;;;5028479;28;20058;-47
2021/06/11 01:20:22;;;;;;;25.92;23.33;;;16.30;99.90;;;;;;5028175;28;20057;-52
2021/06/11 01:23:07;;;;;;;25.08;22.38;;;16.30;99.90;;;;;;5028554;28;20212;-49
2021/06/11 01:26:02;;;;;;;24.90;22.35;;;16.20;99.90;;;;;;5012925;28;20037;-49
2021/06/11 01:28:31;;;;;;;25.95;23.13;;;16.30;99.90;;;;;;5008785;28;20478;-51
2021/06/11 01:30:59;;;;;;;27.02;23.00;;;16.20;99.90;;;;;;5023762;28;20049;-48
2021/06/11 01:33:29;;;;;;;27.30;24.40;;;16.20;99.90;;;;;;5028439;28;20394;-50
2021/06/11 01:36:10;;;;;;;27.60;24.77;;;16.20;99.90;;;;;;5028600;28;20427;-49
2021/06/11 01:38:43;;;;;;;29.40;25.15;;;16.20;99.90;;;;;;5027394;28;20041;-50
2021/06/11 01:41:12;;;;;;;26.63;24.02;;;16.10;99.90;;;;;;5022286;28;20052;-47
2021/06/11 01:43:41;;;;;;;27.90;24.45;;;16.10;99.90;;;;;;5029170;28;20136;-50
2021/06/11 01:46:14;;;;;;;26.17;23.60;;;16.10;99.90;;;;;;5010679;28;20051;-51
2021/06/11 01:48:43;;;;;;;27.20;24.38;;;16.10;99.90;;;;;;5009673;28;20077;-50
2021/06/11 01:51:12;;;;;;;28.73;25.73;;;16.10;99.90;;;;;;5014923;28;20057;-47
2021/06/11 01:53:41;;;;;;;28.95;26.05;;;16.00;99.90;;;;;;5021973;28;20045;-49
2021/06/11 01:56:11;;;;;;;30.92;27.55;;;16.00;99.90;;;;;;5008930;28;20053;-50
2021/06/11 01:58:43;;;;;;;33.28;29.88;;;16.00;99.90;;;;;;5008942;28;20065;-53
2021/06/11 02:01:11;;;;;;;31.30;27.60;;;15.90;99.90;;;;;;5009592;28;20073;-49
2021/06/11 02:03:39;;;;;;;29.35;26.35;;;15.90;99.90;;;;;;5028491;28;20071;-48
2021/06/11 02:06:09;;;;;;;30.20;27.00;;;15.90;99.90;;;;;;5027998;28;20092;-47
2021/06/11 02:08:36;;;;;;;31.45;28.15;;;15.90;99.90;;;;;;5025939;28;20049;-46
2021/06/11 02:11:03;;;;;;;31.80;28.15;;;15.90;99.90;;;;;;5010478;28;20049;-50
2021/06/11 02:13:29;;;;;;;32.80;29.48;;;15.90;99.90;;;;;;5026219;28;20168;-46
2021/06/11 02:16:00;;;;;;;30.73;27.42;;;15.80;99.90;;;;;;5026747;28;20064;-51
2021/06/11 02:18:27;;;;;;;30.13;27.10;;;15.70;99.90;;;;;;5027820;28;20505;-49
2021/06/11 02:20:54;;;;;;;26.85;24.13;;;15.70;99.90;;;;;;5027894;28;20188;-46
2021/06/11 02:23:20;;;;;;;27.30;24.60;;;15.70;99.90;;;;;;5021326;28;20064;-50
2021/06/11 02:25:47;;;;;;;27.08;24.17;;;15.60;99.90;;;;;;5026714;28;20053;-51
2021/06/11 02:28:20;;;;;;;28.35;25.35;;;15.60;99.90;;;;;;5028399;28;20053;-52
2021/06/11 02:30:46;;;;;;;29.88;26.80;;;15.60;99.90;;;;;;5024275;28;20065;-48
2021/06/11 02:33:14;;;;;;;27.08;24.35;;;15.50;99.90;;;;;;5028507;28;20150;-47
2021/06/11 02:35:40;;;;;;;28.33;25.52;;;15.60;99.90;;;;;;5027357;28;20496;-50
2021/06/11 02:38:07;;;;;;;27.67;24.92;;;15.50;99.90;;;;;;5027451;28;20041;-50
2021/06/11 02:40:38;;;;;;;29.27;26.38;;;15.50;99.90;;;;;;5012623;28;20136;-48
2021/06/11 02:43:12;;;;;;;25.55;22.98;;;15.40;99.90;;;;;;5007462;28;20391;-52
2021/06/11 02:46:01;;;;;;;27.38;24.80;;;15.40;99.90;;;;;;5015737;28;20045;-51
2021/06/11 02:48:38;;;;;;;28.50;25.70;;;15.50;99.90;;;;;;5027292;28;20053;-48
2021/06/11 02:51:28;;;;;;;30.23;27.13;;;15.50;99.90;;;;;;5024585;28;20441;-48
2021/06/11 02:53:55;;;;;;;33.67;30.17;;;15.50;99.90;;;;;;5018750;28;20068;-50
2021/06/11 02:56:41;;;;;;;29.33;26.38;;;15.50;99.90;;;;;;5007797;28;20700;-52
2021/06/11 02:59:18;;;;;;;29.60;26.52;;;15.50;99.90;;;;;;5007177;28;20066;-50
2021/06/11 03:01:50;;;;;;;30.75;27.45;;;15.50;99.90;;;;;;5009213;28;20078;-52
2021/06/11 03:04:18;;;;;;;31.77;28.52;;;15.40;99.90;;;;;;5007231;28;20554;-50
2021/06/11 03:06:47;;;;;;;32.42;28.90;;;15.40;99.90;;;;;;5014428;28;20041;-51
2021/06/11 03:09:18;;;;;;;31.23;27.92;;;15.40;99.90;;;;;;5023981;28;20046;-46
2021/06/11 03:11:44;;;;;;;34.58;29.58;;;15.40;99.90;;;;;;5019004;28;20423;-48
2021/06/11 03:14:12;;;;;;;32.50;29.10;;;15.40;99.90;;;;;;5007753;28;20049;-49
2021/06/11 03:16:43;;;;;;;32.40;29.08;;;15.40;99.90;;;;;;5009287;28;20096;-47
2021/06/11 03:19:12;;;;;;;31.15;27.75;;;15.40;99.90;;;;;;5008583;28;20054;-53
2021/06/11 03:21:48;;;;;;;30.63;27.48;;;15.40;99.90;;;;;;5007586;28;20374;-49
2021/06/11 03:24:30;;;;;;;35.80;31.85;;;15.40;99.90;;;;;;5019177;28;20479;-51
2021/06/11 03:27:20;;;;;;;;;;;15.40;99.90;;;;;;5007714;28;20565;-50
2021/06/11 03:29:55;;;;;;;35.85;31.92;;;15.40;99.90;;;;;;5005040;28;19928;-53
2021/06/11 03:32:27;;;;;;;32.40;29.05;;;15.40;99.90;;;;;;5021484;28;20095;-51
2021/06/11 03:35:00;;;;;;;33.05;29.45;;;15.40;99.90;;;;;;5023631;28;20049;-49
2021/06/11 03:37:29;;;;;;;33.72;30.13;;;15.50;99.90;;;;;;5024264;28;20076;-47
2021/06/11 03:40:10;;;;;;;34.92;30.90;;;15.50;99.90;;;;;;5012758;28;20641;-47
2021/06/11 03:42:45;;;;;;;35.05;31.08;;;15.50;99.90;;;;;;5023638;28;20073;-49
2021/06/11 03:45:22;;;;;;;34.05;30.58;;;15.50;99.90;;;;;;5021857;28;20077;-50
2021/06/11 03:47:49;;;;;;;39.67;32.15;;;15.50;99.90;;;;;;5023211;28;20132;-47
2021/06/11 03:50:27;;;;;;;36.35;32.60;;;15.50;99.90;;;;;;5007536;28;20054;-48
2021/06/11 03:52:59;;;;;;;39.95;34.35;;;15.50;99.90;;;;;;5022671;28;20575;-49
2021/06/11 03:55:34;;;;;;;38.15;33.80;;;15.50;99.90;;;;;;5023329;28;20053;-49
2021/06/11 03:58:18;;;;;;;36.07;31.73;;;15.60;99.90;;;;;;5023564;28;20445;-52
2021/06/11 04:00:46;;;;;;;40.90;35.75;;;15.60;99.90;;;;;;5023344;28;20304;-48
2021/06/11 04:03:13;;;;;;;33.50;29.92;;;15.60;99.90;;;;;;5013845;28;20524;-49
2021/06/11 04:05:39;;;;;;;26.42;23.73;;;15.60;99.90;;;;;;5007165;28;20042;-50
2021/06/11 04:08:11;;;;;;;30.77;27.67;;;15.50;99.90;;;;;;5010867;28;20056;-50
2021/06/11 04:10:55;;;;;;;30.77;27.50;;;15.50;99.90;;;;;;5028998;28;20470;-48
2021/06/11 04:13:37;;;;;;;32.60;29.10;;;15.50;99.90;;;;;;5022366;28;20478;-50
2021/06/11 04:16:07;;;;;;;34.83;31.00;;;15.50;99.90;;;;;;5026902;28;20473;-50
2021/06/11 04:18:36;;;;;;;38.22;33.92;;;15.50;99.90;;;;;;5011112;28;20061;-49
2021/06/11 04:21:04;;;;;;;37.13;31.23;;;15.60;99.90;;;;;;5010417;28;20046;-46
2021/06/11 04:23:38;;;;;;;39.47;35.25;;;15.60;99.90;;;;;;5017122;28;20370;-52
2021/06/11 04:26:07;;;;;;;42.15;37.60;;;15.70;99.90;;;;;;5010721;28;20544;-47
2021/06/11 04:28:35;;;;;;;44.72;39.80;;;15.80;99.90;;;;;;5014120;28;20046;-47
2021/06/11 04:31:02;;;;;;;43.47;38.97;;;15.80;99.90;;;;;;5014920;28;20696;-49
2021/06/11 04:33:30;;;;;;;42.90;38.22;;;15.90;99.90;;;;;;5016515;28;20169;-48
2021/06/11 04:35:57;;;;;;;42.53;37.72;;;16.00;99.90;;;;;;5011226;28;20046;-53
2021/06/11 04:38:24;;;;;;;44.47;39.67;;;16.00;99.90;;;;;;5010846;28;20057;-48
2021/06/11 04:40:51;;;;;;;47.03;39.85;;;16.10;99.90;;;;;;5023378;28;20827;-48
2021/06/11 04:43:23;;;;;;;46.10;39.88;;;16.20;99.90;;;;;;5008287;28;20057;-45
2021/06/11 04:45:50;;;;;;;48.88;40.40;;;16.30;99.90;;;;;;5009808;28;20077;-49
2021/06/11 04:48:17;;;;;;;45.10;39.22;;;16.40;99.90;;;;;;5028623;28;20095;-50
2021/06/11 04:50:43;;;;;;;44.55;39.20;;;16.50;99.90;;;;;;5027863;28;20092;-49
2021/06/11 04:53:12;;;;;;;46.53;37.90;;;16.60;99.90;;;;;;5010720;28;20080;-52
2021/06/11 04:55:42;;;;;;;41.10;36.63;;;16.80;99.90;;;;;;5019970;28;20042;-53
2021/06/11 04:58:09;;;;;;;37.13;33.22;;;16.90;99.90;;;;;;5026678;28;20371;-51
2021/06/11 05:00:36;;;;;;;42.45;37.47;;;17.10;99.90;;;;;;5035837;28;20072;-53
2021/06/11 05:03:05;;;;;;;40.90;36.47;;;17.20;99.90;;;;;;5021190;28;20050;-53
2021/06/11 05:05:31;;;;;;;37.22;33.42;;;17.30;99.90;;;;;;5026474;28;20136;-53
2021/06/11 05:07:59;;;;;;;34.28;30.67;;;17.50;99.90;;;;;;5018332;28;20041;-53
2021/06/11 05:10:33;;;;;;;35.22;31.67;;;17.90;99.90;;;;;;5018369;28;20551;-52
2021/06/11 05:13:01;;;;;;;32.95;29.40;;;18.30;99.90;;;;;;5019402;28;20057;-54
2021/06/11 05:15:30;;;;;;;33.58;30.05;;;18.70;99.90;;;;;;5028032;28;20046;-55
2021/06/11 05:18:08;;;;;;;27.77;24.88;;;18.90;99.90;;;;;;5025852;28;20076;-54
2021/06/11 05:20:44;;;;;;;26.45;23.83;;;19.00;99.90;;;;;;5031178;28;20042;-54
2021/06/11 05:23:11;;;;;;;25.50;22.80;;;19.40;99.90;;;;;;5029784;28;20053;-56
2021/06/11 05:25:39;;;;;;;25.73;23.15;;;19.50;99.90;;;;;;5025406;28;20045;-52
2021/06/11 05:28:09;;;;;;;24.77;22.40;;;19.60;99.90;;;;;;5028765;28;20521;-51
2021/06/11 05:30:36;;;;;;;24.88;22.38;;;19.80;99.90;;;;;;5029780;28;20080;-57
2021/06/11 05:33:06;;;;;;;23.70;21.30;;;20.10;99.90;;;;;;5026555;28;20037;-53
2021/06/11 05:35:34;;;;;;;25.75;23.15;;;20.30;99.90;;;;;;5028828;28;20440;-54
2021/06/11 05:38:04;;;;;;;26.65;23.90;;;20.20;99.90;;;;;;5026498;28;20060;-56
2021/06/11 05:40:32;;;;;;;27.85;24.95;;;20.40;99.90;;;;;;5026817;28;20084;-56
2021/06/11 05:43:02;;;;;;;26.23;23.60;;;20.40;99.90;;;;;;5024563;28;20046;-59
2021/06/11 05:45:35;;;;;;;27.55;24.88;;;20.60;99.90;;;;;;5017400;28;20394;-56
2021/06/11 05:48:04;;;;;;;28.15;25.35;;;20.60;99.90;;;;;;5017695;28;20124;-55
2021/06/11 05:50:32;;;;;;;26.27;23.55;;;20.80;99.90;;;;;;5025047;28;20057;-51
2021/06/11 05:52:59;;;;;;;27.45;24.65;;;20.90;99.90;;;;;;5025839;28;20050;-56
2021/06/11 05:55:37;;;;;;;24.60;22.15;;;21.10;99.90;;;;;;5022705;28;20041;-55
2021/06/11 05:58:23;;;;;;;22.30;19.95;;;21.20;99.60;;;;;;5019851;28;20114;-53
2021/06/11 06:00:51;;;;;;;19.90;17.85;;;21.40;99.90;;;;;;5026464;28;20045;-55
2021/06/11 06:03:21;;;;;;;19.48;17.48;;;21.30;99.50;;;;;;5024841;28;20057;-55
2021/06/11 06:05:51;;;;;;;19.83;16.52;;;21.50;99.20;;;;;;5021400;28;20049;-56
2021/06/11 06:08:18;;;;;;;18.02;16.17;;;21.70;98.20;;;;;;5025753;28;20041;-52
2021/06/11 06:10:49;;;;;;;18.88;16.95;;;21.80;97.60;;;;;;5015899;28;20092;-55
2021/06/11 06:13:16;;;;;;;16.67;14.60;;;22.00;97.10;;;;;;5027133;28;20836;-57
2021/06/11 06:15:43;;;;;;;15.00;13.52;;;22.20;96.90;;;;;;5026798;28;20964;-56
2021/06/11 06:18:10;;;;;;;16.00;14.40;;;22.60;96.20;;;;;;5025368;28;20046;-51
2021/06/11 06:20:38;;;;;;;16.65;14.90;;;22.60;95.80;;;;;;5027837;28;20093;-56
2021/06/11 06:23:04;;;;;;;16.55;14.93;;;22.90;95.20;;;;;;5027578;28;20140;-53
2021/06/11 06:25:31;;;;;;;16.73;15.13;;;23.10;95.20;;;;;;5025179;28;20642;-56
2021/06/11 06:27:59;;;;;;;16.23;14.73;;;23.20;93.00;;;;;;5027627;28;20490;-51
2021/06/11 06:30:26;;;;;;;18.58;16.58;;;23.00;94.00;;;;;;5019088;28;20394;-57
2021/06/11 06:32:54;;;;;;;17.98;16.17;;;23.10;93.90;;;;;;5017695;28;20497;-54
2021/06/11 06:35:21;;;;;;;21.23;19.13;;;23.20;93.00;;;;;;5017780;28;20508;-56
2021/06/11 06:37:47;;;;;;;19.02;16.98;;;23.20;91.60;;;;;;5018820;28;20037;-54
2021/06/11 06:40:14;;;;;;;20.15;18.02;;;23.40;93.20;;;;;;5014682;28;20050;-54
2021/06/11 06:42:41;;;;;;;15.85;14.35;;;23.30;91.80;;;;;;5008353;28;20061;-53
2021/06/11 06:45:12;;;;;;;18.80;16.92;;;23.40;91.50;;;;;;5027260;28;20041;-54
2021/06/11 06:47:43;;;;;;;15.27;13.77;;;23.50;90.90;;;;;;5014904;28;20046;-52
2021/06/11 06:50:15;;;;;;;16.25;14.57;;;23.50;91.00;;;;;;5016264;28;20038;-51
2021/06/11 06:52:42;;;;;;;14.23;12.65;;;23.60;90.10;;;;;;5018002;28;20152;-55
2021/06/11 06:55:12;;;;;;;41.50;37.58;;;23.70;90.70;;;;;;5023801;28;20045;-53
2021/06/11 06:57:39;;;;;;;36.45;32.80;;;23.80;90.50;;;;;;5017704;28;20058;-55
2021/06/11 07:00:08;;;;;;;32.50;29.40;;;23.70;88.60;;;;;;5026581;28;20045;-57
2021/06/11 07:02:36;;;;;;;16.80;14.98;;;23.80;86.70;;;;;;5025541;28;20057;-53
2021/06/11 07:05:04;;;;;;;18.52;16.83;;;23.80;88.30;;;;;;5022900;28;20120;-54
2021/06/11 07:07:30;;;;;;;15.75;14.15;;;23.90;89.50;;;;;;5019629;28;20049;-50
2021/06/11 07:09:56;;;;;;;19.00;17.10;;;24.10;89.40;;;;;;5020958;28;20099;-55
2021/06/11 07:12:26;;;;;;;17.95;16.13;;;24.10;88.70;;;;;;5020071;28;20056;-56
2021/06/11 07:14:54;;;;;;;21.27;19.27;;;24.00;90.10;;;;;;5025912;28;20041;-54
2021/06/11 07:17:20;;;;;;;19.70;17.83;;;24.40;89.30;;;;;;5028359;28;20045;-49
2021/06/11 07:20:08;;;;;;;17.17;15.38;;;24.50;86.90;;;;;;5023367;28;20060;-54
2021/06/11 07:22:34;;;;;;;18.05;16.23;;;24.50;85.30;;;;;;5025477;28;20486;-53
2021/06/11 07:25:03;;;;;;;18.35;15.80;;;24.50;87.20;;;;;;5018150;28;20684;-53
2021/06/11 07:27:33;;;;;;;35.83;19.58;;;24.30;88.90;;;;;;5017380;28;20407;-49
2021/06/11 07:30:06;;;;;;;50.65;16.85;;;24.70;88.40;;;;;;5024181;28;20045;-51
2021/06/11 07:32:42;;;;;;;17.92;13.90;;;24.70;88.10;;;;;;5012668;28;20053;-50
2021/06/11 07:35:14;;;;;;;16.60;15.00;;;24.50;88.10;;;;;;5013224;28;20508;-53
2021/06/11 07:37:41;;;;;;;16.92;15.27;;;24.20;87.60;;;;;;5033440;28;20482;-53
2021/06/11 07:40:11;;;;;;;13.25;11.85;;;24.00;89.40;;;;;;5027296;28;20428;-56
2021/06/11 07:42:40;;;;;;;13.43;12.05;;;24.40;88.60;;;;;;5030811;28;20052;-53
2021/06/11 07:45:09;;;;;;;12.25;10.95;;;24.40;88.70;;;;;;5028338;28;20128;-54
2021/06/11 07:47:36;;;;;;;12.27;10.98;;;24.80;87.50;;;;;;5029600;28;20092;-49
2021/06/11 07:50:15;;;;;;;13.15;11.75;;;25.10;86.70;;;;;;5028000;28;20045;-52
2021/06/11 07:52:50;;;;;;;12.93;11.55;;;25.10;85.70;;;;;;5028835;28;20045;-51
2021/06/11 07:55:19;;;;;;;12.73;11.15;;;25.60;82.90;;;;;;5025170;28;20053;-55
2021/06/11 07:58:05;;;;;;;13.55;11.43;;;25.80;83.30;;;;;;5028964;28;20054;-54
2021/06/11 08:00:51;;;;;;;12.23;11.02;;;26.20;81.70;;;;;;5026672;28;20128;-53
2021/06/11 08:03:18;;;;;;;11.43;10.20;;;26.20;80.10;;;;;;5025743;28;20077;-53
2021/06/11 08:05:48;;;;;;;13.65;12.13;;;26.70;79.00;;;;;;5026661;28;20087;-53
2021/06/11 08:08:14;;;;;;;16.35;14.75;;;26.10;78.80;;;;;;5027904;28;20370;-52
2021/06/11 08:10:42;;;;;;;18.40;16.60;;;26.20;78.50;;;;;;5026932;28;20676;-53
2021/06/11 08:13:13;;;;;;;13.80;12.45;;;26.20;77.50;;;;;;5022226;28;20053;-52
2021/06/11 08:15:41;;;;;;;14.93;13.48;;;26.20;77.90;;;;;;5021759;28;20045;-54
2021/06/11 08:18:07;;;;;;;13.90;12.60;;;26.70;76.20;;;;;;5023235;28;20080;-54
2021/06/11 08:20:34;;;;;;;18.02;16.27;;;27.00;75.30;;;;;;5022432;28;20049;-52
2021/06/11 08:23:01;;;;;;;13.85;12.55;;;26.90;76.30;;;;;;5026392;28;20041;-53
2021/06/11 08:25:34;;;;;;;35.08;31.73;;;26.80;75.40;;;;;;5030887;28;20071;-53
2021/06/11 08:28:20;;;;;;;21.40;19.33;;;27.00;75.30;;;;;;5017834;28;20041;-51
2021/06/11 08:30:47;;;;;;;22.00;19.80;;;26.80;73.10;;;;;;5026825;28;20045;-55
2021/06/11 08:33:16;;;;;;;18.75;16.88;;;26.90;74.90;;;;;;5023411;28;20041;-55
2021/06/11 08:35:43;;;;;;;16.15;14.55;;;27.10;73.70;;;;;;5026447;28;20158;-55
2021/06/11 08:38:10;;;;;;;18.50;16.80;;;27.20;73.30;;;;;;5027845;28;20540;-52
2021/06/11 08:40:45;;;;;;;19.30;17.38;;;27.20;73.90;;;;;;5026889;28;20130;-54
2021/06/11 08:43:15;;;;;;;17.63;15.73;;;27.00;74.10;;;;;;5027063;28;20371;-53
2021/06/11 08:45:43;;;;;;;17.35;15.60;;;26.70;72.50;;;;;;5023489;28;20056;-51
2021/06/11 08:48:09;;;;;;;18.33;16.55;;;26.80;74.00;;;;;;5025239;28;20060;-53
2021/06/11 08:50:37;;;;;;;19.05;17.20;;;26.70;73.10;;;;;;5026992;28;20041;-54
2021/06/11 08:53:05;;;;;;;17.92;16.17;;;26.50;74.50;;;;;;5028475;28;20114;-52
2021/06/11 08:55:35;;;;;;;18.73;16.53;;;26.50;75.50;;;;;;5027368;28;20054;-51
2021/06/11 08:58:07;;;;;;;22.35;20.25;;;26.90;74.80;;;;;;5026696;28;20394;-54
2021/06/11 09:00:41;;;;;;;22.35;20.23;;;27.20;72.90;;;;;;5027421;28;20055;-54
2021/06/11 09:03:24;;;;;;;23.15;21.02;;;27.40;71.30;;;;;;5027752;28;20075;-54
2021/06/11 09:05:54;;;;;;;16.95;15.30;;;27.40;71.90;;;;;;5026005;28;20123;-55
2021/06/11 09:08:27;;;;;;;18.30;16.63;;;27.60;70.70;;;;;;5026071;28;20067;-52
2021/06/11 09:11:30;;;;;;;17.85;16.15;;;27.70;70.70;;;;;;5020718;28;20100;-52
2021/06/11 09:14:19;;;;;;;14.90;13.38;;;27.30;70.10;;;;;;5020444;28;20437;-52
2021/06/11 09:16:55;;;;;;;14.85;13.35;;;26.70;71.60;;;;;;5011473;28;20042;-53
2021/06/11 09:19:24;;;;;;;13.85;12.38;;;26.90;72.60;;;;;;5012596;28;20045;-53
2021/06/11 09:22:10;;;;;;;13.45;12.15;;;27.00;71.00;;;;;;5024517;28;20049;-54
2021/06/11 09:25:22;;;;;;;13.85;12.38;;;27.00;70.30;;;;;;5020716;28;20037;-52
2021/06/11 09:27:55;;;;;;;12.15;10.93;;;26.70;69.30;;;;;;5019807;28;20069;-53
2021/06/11 09:30:23;;;;;;;12.13;10.90;;;26.40;71.20;;;;;;5026872;28;20052;-49
2021/06/11 09:32:59;;;;;;;11.77;10.63;;;26.30;72.80;;;;;;5024129;28;20165;-56
2021/06/11 09:35:34;;;;;;;11.25;9.50;;;26.80;72.20;;;;;;5018877;28;20053;-55
2021/06/11 09:38:33;;;;;;;40.50;36.63;;;27.50;71.50;;;;;;5007244;28;20054;-50
2021/06/11 09:41:02;;;;;;;45.67;41.28;;;27.80;66.50;;;;;;5043211;28;20048;-54
2021/06/11 09:43:57;;;;;;;39.13;34.95;;;27.40;67.80;;;;;;5043914;28;20048;-56
2021/06/11 09:46:23;;;;;;;20.73;18.73;;;27.20;68.70;;;;;;5040465;28;20110;-52
2021/06/11 09:48:51;;;;;;;20.05;17.98;;;26.90;68.80;;;;;;5037193;28;20127;-53
2021/06/11 09:51:26;;;;;;;14.20;12.82;;;26.60;70.50;;;;;;5041369;28;20556;-53
2021/06/11 09:53:54;;;;;;;10.25;9.07;;;26.70;71.60;;;;;;5041814;28;20049;-53
2021/06/11 09:56:21;;;;;;;9.10;8.05;;;26.40;71.30;;;;;;5026391;28;20083;-50
2021/06/11 09:58:48;;;;;;;11.05;9.95;;;26.50;72.10;;;;;;5042359;28;20057;-49
2021/06/11 10:01:15;;;;;;;10.00;9.00;;;27.10;70.90;;;;;;5041840;28;20080;-50
2021/06/11 10:03:48;;;;;;;9.77;8.52;;;27.10;70.20;;;;;;5011700;28;20052;-54
2021/06/11 10:06:17;;;;;;;9.05;7.60;;;26.60;70.00;;;;;;5023361;28;20046;-51
2021/06/11 10:08:46;;;;;;;9.73;8.48;;;26.30;69.50;;;;;;5021564;28;20054;-50
2021/06/11 10:11:25;;;;;;;10.25;9.25;;;26.60;69.60;;;;;;5023849;28;20069;-51
2021/06/11 10:13:54;;;;;;;10.43;9.25;;;26.90;70.90;;;;;;5034222;28;20048;-54
2021/06/11 10:16:20;;;;;;;9.82;8.68;;;27.80;68.90;;;;;;5029148;28;20046;-51
2021/06/11 10:18:48;;;;;;;10.60;9.02;;;27.90;66.00;;;;;;5006425;28;20057;-52
2021/06/11 10:21:17;;;;;;;11.02;10.00;;;28.20;64.20;;;;;;5006938;28;20049;-49
2021/06/11 10:23:43;;;;;;;7.50;6.80;;;28.60;63.80;;;;;;5013445;28;20140;-49
2021/06/11 10:26:12;;;;;;;8.05;6.55;;;28.50;61.60;;;;;;5025636;28;20057;-48
2021/06/11 10:28:42;;;;;;;8.95;6.78;;;27.90;62.00;;;;;;5020191;28;20075;-47
2021/06/11 10:31:19;;;;;;;9.40;8.45;;;27.70;62.20;;;;;;5023724;28;20049;-50
2021/06/11 10:33:47;;;;;;;8.63;7.72;;;28.20;61.70;;;;;;5022535;28;20065;-51
2021/06/11 10:36:27;;;;;;;23.27;21.13;;;28.30;63.10;;;;;;5016601;28;20176;-57
2021/06/11 10:39:02;;;;;;;28.92;26.23;;;28.00;63.20;;;;;;5013990;28;20107;-58
2021/06/11 10:41:56;;;;;;;18.73;16.90;;;27.80;64.30;;;;;;5016676;28;20045;-52
2021/06/11 10:44:32;;;;;;;13.00;11.77;;;28.40;61.30;;;;;;5025163;28;20045;-57
2021/06/11 10:47:16;;;;;;;8.70;7.85;;;28.90;59.80;;;;;;5013811;28;20128;-56
2021/06/11 10:49:59;;;;;;;16.10;14.57;;;29.00;59.50;;;;;;5013911;28;20074;-54
2021/06/11 10:52:37;;;;;;;8.80;7.90;;;29.30;58.30;;;;;;5007425;28;20046;-58
2021/06/11 10:55:16;;;;;;;11.40;9.57;;;29.50;58.30;;;;;;5020062;28;20398;-50
2021/06/11 10:58:08;;;;;;;7.50;5.95;;;29.70;57.60;;;;;;5025015;28;20572;-53
2021/06/11 11:00:42;;;;;;;10.10;8.20;;;29.70;53.60;;;;;;5025437;28;20072;-55
2021/06/11 11:03:24;;;;;;;9.25;8.30;;;29.20;55.80;;;;;;5025621;28;20064;-53
2021/06/11 11:05:50;;;;;;;9.45;8.50;;;28.70;59.20;;;;;;5025272;28;20056;-53
2021/06/11 11:08:16;;;;;;;14.20;12.90;;;28.80;60.10;;;;;;5025778;28;20133;-56
2021/06/11 11:10:54;;;;;;;12.70;11.40;;;29.50;57.80;;;;;;5024768;28;20519;-54
2021/06/11 11:13:28;;;;;;;11.52;10.43;;;29.60;57.30;;;;;;5013137;28;20041;-51
2021/06/11 11:15:57;;;;;;;13.75;12.45;;;30.00;57.80;;;;;;5006857;28;20042;-50
2021/06/11 11:18:32;;;;;;;12.48;11.25;;;29.70;57.20;;;;;;5011000;28;20466;-54
2021/06/11 11:20:59;;;;;;;17.73;15.93;;;29.60;54.20;;;;;;5010573;28;20049;-54
2021/06/11 11:23:30;;;;;;;9.77;8.88;;;29.20;56.80;;;;;;5018455;28;20056;-54
2021/06/11 11:25:56;;;;;;;6.45;5.78;;;30.00;54.80;;;;;;5020501;28;20041;-54
2021/06/11 11:28:22;;;;;;;8.38;7.55;;;29.90;55.70;;;;;;5023232;28;20271;-52
2021/06/11 11:30:49;;;;;;;9.20;7.07;;;30.00;54.70;;;;;;5012166;28;20048;-51
2021/06/11 11:33:17;;;;;;;5.00;4.50;;;29.50;54.80;;;;;;5009658;28;20112;-53
2021/06/11 11:35:51;;;;;;;5.60;4.78;;;30.10;55.40;;;;;;5021440;28;20103;-53
2021/06/11 11:38:17;;;;;;;6.45;5.38;;;29.90;54.70;;;;;;5023184;28;20076;-53
2021/06/11 11:40:43;;;;;;;6.30;4.72;;;29.50;55.40;;;;;;5013182;28;20107;-57
2021/06/11 11:43:10;;;;;;;5.03;3.70;;;29.10;55.60;;;;;;5015149;28;20051;-49
2021/06/11 11:45:38;;;;;;;5.60;4.15;;;28.80;56.50;;;;;;5022750;28;20053;-50
2021/06/11 11:48:07;;;;;;;5.68;4.10;;;28.20;57.40;;;;;;5020347;28;20049;-52
2021/06/11 11:50:36;;;;;;;6.43;5.10;;;28.20;59.10;;;;;;5024275;28;20049;-53
2021/06/11 11:53:03;;;;;;;7.03;5.97;;;28.20;59.60;;;;;;5024829;28;20465;-53
2021/06/11 11:55:33;;;;;;;8.10;7.28;;;28.80;59.20;;;;;;5021870;28;20045;-53
2021/06/11 11:57:59;;;;;;;9.68;7.10;;;28.60;59.50;;;;;;5012204;28;20061;-51
2021/06/11 12:00:27;;;;;;;8.63;6.95;;;27.90;60.30;;;;;;5021631;28;20049;-49
2021/06/11 12:02:59;;;;;;;9.27;7.30;;;27.80;60.90;;;;;;5023443;28;20046;-51
2021/06/11 12:05:25;;;;;;;8.52;7.22;;;27.50;62.50;;;;;;5024889;28;20041;-53
2021/06/11 12:07:53;;;;;;;10.68;8.98;;;27.90;62.50;;;;;;5024691;28;20053;-53
2021/06/11 12:10:22;;;;;;;8.63;7.63;;;28.30;61.50;;;;;;5013152;28;20498;-55
2021/06/11 12:12:50;;;;;;;10.32;8.68;;;27.90;62.30;;;;;;5015874;28;20045;-56
2021/06/11 12:15:19;;;;;;;10.70;8.50;;;28.30;61.30;;;;;;5013329;28;20176;-51
2021/06/11 12:17:46;;;;;;;10.57;9.48;;;28.40;60.10;;;;;;5025351;28;20045;-54
2021/06/11 12:20:13;;;;;;;17.02;15.38;;;28.80;59.70;;;;;;5018527;28;20042;-55
2021/06/11 12:22:39;;;;;;;13.27;11.98;;;29.10;59.60;;;;;;5024248;28;20567;-52
2021/06/11 12:25:06;;;;;;;14.13;12.45;;;29.30;60.00;;;;;;5027535;28;20510;-57
2021/06/11 12:27:32;;;;;;;13.20;11.75;;;29.70;58.50;;;;;;5026786;28;20041;-49
2021/06/11 12:29:59;;;;;;;14.40;10.90;;;30.10;57.70;;;;;;5021691;28;20076;-54
2021/06/11 12:32:25;;;;;;;12.55;11.45;;;30.00;58.40;;;;;;5026827;28;20072;-54
2021/06/11 12:34:51;;;;;;;13.10;11.70;;;29.60;57.80;;;;;;5027313;28;20145;-52
2021/06/11 12:37:21;;;;;;;14.80;13.40;;;30.40;56.70;;;;;;5028718;28;20771;-50
2021/06/11 12:39:51;;;;;;;10.93;8.55;;;30.40;56.70;;;;;;5028436;28;20045;-50
2021/06/11 12:42:25;;;;;;;9.90;8.90;;;30.40;55.80;;;;;;5028753;28;20049;-49
2021/06/11 12:44:52;;;;;;;10.80;9.65;;;30.00;54.80;;;;;;5028399;28;20045;-52
2021/06/11 12:47:18;;;;;;;8.00;6.15;;;30.10;55.40;;;;;;5027105;28;20052;-54
2021/06/11 12:49:49;;;;;;;8.10;7.30;;;30.40;53.90;;;;;;5009362;28;20053;-51